createdAt,value
2023-05-09T00:02:13.205Z,98845.09
2023-05-09T00:04:39.647Z,98836.47
2023-05-09T00:07:06.030Z,98832.75
2023-05-09T00:09:32.373Z,98845.34
2023-05-09T00:11:58.840Z,98836.47
2023-05-09T00:14:25.180Z,98829.09
2023-05-09T00:16:51.551Z,98834.75
2023-05-09T00:19:17.963Z,98834.50
2023-05-09T00:21:44.389Z,98838.22
2023-05-09T00:24:10.708Z,98840.06
2023-05-09T00:26:37.074Z,98831.00
2023-05-09T00:29:03.431Z,98829.91
2023-05-09T00:31:29.865Z,98825.09
2023-05-09T00:33:56.200Z,98828.56
2023-05-09T00:36:22.690Z,98821.53
2023-05-09T00:38:49.191Z,98818.69
2023-05-09T00:41:15.530Z,98806.84
2023-05-09T00:43:41.850Z,98817.16
2023-05-09T00:46:08.324Z,98800.59
2023-05-09T00:48:35.136Z,98796.72
2023-05-09T00:51:02.537Z,98801.06
2023-05-09T00:53:28.878Z,98799.50
2023-05-09T00:55:56.910Z,98788.00
2023-05-09T00:58:23.720Z,98794.41
2023-05-09T01:00:50.232Z,98795.06
2023-05-09T01:03:16.676Z,98788.63
2023-05-09T01:06:22.428Z,98781.06
2023-05-09T01:09:04.202Z,98792.53
2023-05-09T01:11:41.321Z,98781.16
2023-05-09T01:14:41.888Z,98788.00
2023-05-09T01:17:16.419Z,98783.41
2023-05-09T01:19:59.980Z,98790.25
2023-05-09T01:22:30.309Z,98777.03
2023-05-09T01:25:15.107Z,98784.72
2023-05-09T01:28:05.171Z,98774.13
2023-05-09T01:30:34.393Z,98763.63
2023-05-09T01:33:01.320Z,98765.31
2023-05-09T01:35:29.537Z,98778.09
2023-05-09T01:37:56.555Z,98779.84
2023-05-09T01:40:24.016Z,98776.81
2023-05-09T01:43:06.858Z,98766.84
2023-05-09T01:45:33.542Z,98773.25
2023-05-09T01:48:00.571Z,98763.13
2023-05-09T01:50:27.402Z,98769.97
2023-05-09T01:52:56.042Z,98777.25
2023-05-09T01:55:25.350Z,98771.94
2023-05-09T01:57:52.277Z,98777.91
2023-05-09T02:00:18.995Z,98775.03
2023-05-09T02:02:45.805Z,98769.97
2023-05-09T02:05:12.509Z,98762.22
2023-05-09T02:07:40.747Z,98768.53
2023-05-09T02:10:07.922Z,98764.00
2023-05-09T02:12:34.308Z,98763.56
2023-05-09T02:15:00.688Z,98753.84
2023-05-09T02:17:27.128Z,98755.81
2023-05-09T02:19:53.482Z,98758.03
2023-05-09T02:22:19.852Z,98745.78
2023-05-09T02:24:46.246Z,98745.69
2023-05-09T02:27:12.829Z,98754.25
2023-05-09T02:29:43.584Z,98751.09
2023-05-09T02:32:27.220Z,98752.53
2023-05-09T02:34:54.304Z,98756.28
2023-05-09T02:37:21.174Z,98751.22
2023-05-09T02:39:47.842Z,98746.31
2023-05-09T02:42:18.208Z,98743.91
2023-05-09T02:44:44.541Z,98731.00
2023-05-09T02:47:10.851Z,98741.47
2023-05-09T02:49:37.211Z,98742.25
2023-05-09T02:52:03.713Z,98743.03
2023-05-09T02:54:30.065Z,98738.63
2023-05-09T02:56:56.446Z,98727.56
2023-05-09T02:59:22.785Z,98735.84
2023-05-09T03:01:49.247Z,98732.53
2023-05-09T03:04:15.651Z,98742.34
2023-05-09T03:06:42.004Z,98725.03
2023-05-09T03:09:08.396Z,98731.75
2023-05-09T03:11:35.731Z,98726.66
2023-05-09T03:14:02.782Z,98717.63
2023-05-09T03:16:29.217Z,98730.00
2023-05-09T03:18:55.626Z,98723.38
2023-05-09T03:21:21.947Z,98720.75
2023-05-09T03:23:48.344Z,98710.78
2023-05-09T03:26:14.673Z,98719.19
2023-05-09T03:28:40.993Z,98717.84
2023-05-09T03:31:07.379Z,98719.72
2023-05-09T03:33:33.743Z,98720.28
2023-05-09T03:36:00.118Z,98720.50
2023-05-09T03:38:26.461Z,98708.28
2023-05-09T03:40:55.905Z,98708.78
2023-05-09T03:43:22.228Z,98716.53
2023-05-09T03:45:48.554Z,98705.69
2023-05-09T03:48:14.867Z,98712.78
2023-05-09T03:50:41.185Z,98693.22
2023-05-09T03:53:07.508Z,98711.63
2023-05-09T03:55:33.841Z,98723.66
2023-05-09T03:58:00.197Z,98707.63
2023-05-09T04:00:26.612Z,98714.75
2023-05-09T04:02:53.349Z,98709.84
2023-05-09T04:05:19.830Z,98698.88
2023-05-09T04:07:46.226Z,98713.00
2023-05-09T04:10:12.544Z,98712.78
2023-05-09T04:12:38.900Z,98709.56
2023-05-09T04:15:06.990Z,98701.28
2023-05-09T04:17:33.346Z,98717.78
2023-05-09T04:19:59.687Z,98712.25
2023-05-09T04:22:26.021Z,98715.22
2023-05-09T04:24:52.343Z,98717.88
2023-05-09T04:27:18.678Z,98705.88
2023-05-09T04:29:45.009Z,98709.06
2023-05-09T04:32:12.464Z,98707.88
2023-05-09T04:34:38.801Z,98705.09
2023-05-09T04:37:05.136Z,98704.69
2023-05-09T04:39:31.519Z,98711.28
2023-05-09T04:41:57.865Z,98698.03
2023-05-09T04:44:24.196Z,98698.59
2023-05-09T04:46:50.577Z,98712.59
2023-05-09T04:49:16.913Z,98714.47
2023-05-09T04:51:43.241Z,98707.84
2023-05-09T04:54:09.558Z,98706.84
2023-05-09T04:56:35.906Z,98708.28
2023-05-09T04:59:02.277Z,98709.47
2023-05-09T05:01:28.659Z,98704.91
2023-05-09T05:03:55.002Z,98696.78
2023-05-09T05:06:21.338Z,98688.72
2023-05-09T05:08:47.659Z,98705.47
2023-05-09T05:11:14.038Z,98709.50
2023-05-09T05:13:40.402Z,98696.25
2023-05-09T05:16:06.810Z,98707.19
2023-05-09T05:18:33.183Z,98704.28
2023-05-09T05:20:59.533Z,98695.66
2023-05-09T05:23:25.980Z,98699.09
2023-05-09T05:25:52.394Z,98693.34
2023-05-09T05:28:18.723Z,98706.69
2023-05-09T05:30:45.059Z,98709.53
2023-05-09T05:33:11.497Z,98704.94
2023-05-09T05:35:37.890Z,98695.47
2023-05-09T05:38:04.212Z,98700.38
2023-05-09T05:40:30.540Z,98686.47
2023-05-09T05:42:56.891Z,98695.13
2023-05-09T05:45:23.297Z,98679.72
2023-05-09T05:47:49.717Z,98679.19
2023-05-09T05:50:16.644Z,98680.59
2023-05-09T05:52:42.997Z,98684.75
2023-05-09T05:55:09.537Z,98685.09
2023-05-09T05:57:35.887Z,98685.66
2023-05-09T06:00:02.258Z,98680.59
2023-05-09T06:02:28.704Z,98680.72
2023-05-09T06:04:56.166Z,98676.41
2023-05-09T06:07:23.663Z,98665.09
2023-05-09T06:09:49.980Z,98671.81
2023-05-09T06:12:16.320Z,98675.50
2023-05-09T06:14:43.070Z,98664.78
2023-05-09T06:17:09.549Z,98660.13
2023-05-09T06:19:35.930Z,98653.78
2023-05-09T06:22:02.284Z,98650.53
2023-05-09T06:24:35.680Z,98644.91
2023-05-09T06:27:02.945Z,98629.91
2023-05-09T06:29:29.769Z,98630.50
2023-05-09T06:31:56.151Z,98632.63
2023-05-09T06:34:22.555Z,98629.47
2023-05-09T06:36:48.909Z,98630.50
2023-05-09T06:39:15.256Z,98632.31
2023-05-09T06:41:41.582Z,98633.19
2023-05-09T06:44:07.926Z,98637.09
2023-05-09T06:46:34.261Z,98630.28
2023-05-09T06:49:00.715Z,98623.19
2023-05-09T06:51:27.167Z,98611.81
2023-05-09T06:53:53.550Z,98617.72
2023-05-09T06:56:20.253Z,98620.06
2023-05-09T06:58:46.802Z,98626.19
2023-05-09T07:01:13.277Z,98608.66
2023-05-09T07:03:39.647Z,98605.59
2023-05-09T07:06:06.201Z,98616.31
2023-05-09T07:08:33.606Z,98597.94
2023-05-09T07:11:00.057Z,98598.75
2023-05-09T07:13:26.455Z,98588.00
2023-05-09T07:15:52.943Z,98587.63
2023-05-09T07:18:19.356Z,98594.91
2023-05-09T07:20:45.701Z,98588.38
2023-05-09T07:23:12.032Z,98584.13
2023-05-09T07:25:38.355Z,98586.34
2023-05-09T07:28:05.433Z,98567.06
2023-05-09T07:30:31.821Z,98581.59
2023-05-09T07:32:58.276Z,98582.41
2023-05-09T07:35:24.660Z,98583.88
2023-05-09T07:37:50.975Z,98579.94
2023-05-09T07:40:17.549Z,98580.75
2023-05-09T07:42:44.005Z,98581.44
2023-05-09T07:45:10.544Z,98558.78
2023-05-09T07:47:36.941Z,98574.47
2023-05-09T07:50:03.515Z,98564.56
2023-05-09T07:52:29.830Z,98566.63
2023-05-09T07:54:56.164Z,98564.50
2023-05-09T07:57:22.506Z,98552.44
2023-05-09T07:59:48.897Z,98546.34
2023-05-09T08:02:15.283Z,98553.97
2023-05-09T08:04:41.908Z,98539.69
2023-05-09T08:07:08.480Z,98548.91
2023-05-09T08:09:34.967Z,98553.66
2023-05-09T08:12:01.319Z,98545.22
2023-05-09T08:14:27.657Z,98523.59
2023-05-09T08:16:53.970Z,98536.59
2023-05-09T08:19:20.294Z,98523.38
2023-05-09T08:21:46.627Z,98520.03
2023-05-09T08:24:13.018Z,98536.69
2023-05-09T08:26:39.517Z,98524.72
2023-05-09T08:29:05.841Z,98532.13
2023-05-09T08:31:32.262Z,98522.72
2023-05-09T08:33:58.615Z,98519.84
2023-05-09T08:36:24.956Z,98509.78
2023-05-09T08:38:51.306Z,98510.66
2023-05-09T08:41:18.035Z,98511.19
2023-05-09T08:43:44.721Z,98501.13
2023-05-09T08:46:11.636Z,98503.19
2023-05-09T08:48:38.758Z,98500.03
2023-05-09T08:51:06.176Z,98500.25
2023-05-09T08:53:33.147Z,98506.75
2023-05-09T08:56:00.126Z,98499.53
2023-05-09T08:58:26.485Z,98501.13
2023-05-09T09:00:53.489Z,98481.34
2023-05-09T09:03:20.128Z,98492.69
2023-05-09T09:05:47.199Z,98480.31
2023-05-09T09:08:14.233Z,98497.34
2023-05-09T09:10:41.688Z,98485.09
2023-05-09T09:13:08.322Z,98490.47
2023-05-09T09:15:36.289Z,98493.75
2023-05-09T09:18:07.794Z,98480.91
2023-05-09T09:20:36.010Z,98470.50
2023-05-09T09:23:03.854Z,98477.78
2023-05-09T09:25:30.244Z,98489.19
2023-05-09T09:27:57.716Z,98477.91
2023-05-09T09:30:24.487Z,98481.88
2023-05-09T09:32:50.962Z,98484.53
2023-05-09T09:35:17.315Z,98480.88
2023-05-09T09:37:43.660Z,98472.78
2023-05-09T09:40:11.992Z,98465.31
2023-05-09T09:42:46.377Z,98467.22
2023-05-09T09:45:14.668Z,98464.03
2023-05-09T09:47:42.939Z,98435.59
2023-05-09T09:50:17.727Z,98447.63
2023-05-09T09:52:51.763Z,98458.28
2023-05-09T09:55:19.589Z,98461.34
2023-05-09T09:57:46.649Z,98435.06
2023-05-09T10:00:14.419Z,98443.06
2023-05-09T10:02:50.984Z,98440.19
2023-05-09T10:05:24.203Z,98423.88
2023-05-09T10:07:51.791Z,98423.81
2023-05-09T10:10:18.160Z,98433.44
2023-05-09T10:12:44.571Z,98434.50
2023-05-09T10:15:12.398Z,98440.56
2023-05-09T10:17:38.958Z,98433.50
2023-05-09T10:20:06.154Z,98410.28
2023-05-09T10:22:33.221Z,98431.13
2023-05-09T10:25:05.827Z,98400.34
2023-05-09T10:27:35.625Z,98396.38
2023-05-09T10:30:04.578Z,98405.38
2023-05-09T10:32:35.876Z,98413.00
2023-05-09T10:35:05.748Z,98409.88
2023-05-09T10:37:33.552Z,98404.59
2023-05-09T10:40:04.612Z,98397.72
2023-05-09T10:42:31.694Z,98389.69
2023-05-09T10:44:58.163Z,98385.13
2023-05-09T10:47:28.028Z,98384.56
2023-05-09T10:49:54.779Z,98383.28
2023-05-09T10:52:21.914Z,98359.88
2023-05-09T10:54:58.717Z,98370.81
2023-05-09T10:57:26.299Z,98364.16
2023-05-09T10:59:52.814Z,98365.34
2023-05-09T11:02:20.046Z,98357.63
2023-05-09T11:04:46.827Z,98364.31
2023-05-09T11:07:23.748Z,98363.41
2023-05-09T11:10:06.978Z,98357.84
2023-05-09T11:12:33.325Z,98347.06
2023-05-09T11:15:07.231Z,98342.13
2023-05-09T11:17:38.000Z,98325.63
2023-05-09T11:20:05.801Z,98332.16
2023-05-09T11:22:43.215Z,98341.00
2023-05-09T11:25:13.758Z,98336.19
2023-05-09T11:27:43.580Z,98321.75
2023-05-09T11:30:14.821Z,98337.66
2023-05-09T11:32:44.293Z,98333.59
2023-05-09T11:35:16.159Z,98323.72
2023-05-09T11:37:59.001Z,98318.19
2023-05-09T11:40:25.936Z,98317.50
2023-05-09T11:42:57.704Z,98318.03
2023-05-09T11:45:26.809Z,98308.66
2023-05-09T11:47:53.348Z,98315.28
2023-05-09T11:50:20.120Z,98315.28
2023-05-09T11:52:47.844Z,98301.44
2023-05-09T11:55:18.552Z,98292.75
2023-05-09T11:57:47.129Z,98300.06
2023-05-09T12:00:16.071Z,98299.25
2023-05-09T12:02:44.128Z,98283.59
2023-05-09T12:05:12.839Z,98299.75
2023-05-09T12:07:39.845Z,98291.09
2023-05-09T12:10:10.435Z,98275.53
2023-05-09T12:12:42.289Z,98281.41
2023-05-09T12:15:09.390Z,98268.78
2023-05-09T12:17:35.904Z,98267.84
2023-05-09T12:20:02.562Z,98260.88
2023-05-09T12:22:28.909Z,98260.66
2023-05-09T12:24:55.397Z,98239.66
2023-05-09T12:27:21.974Z,98252.81
2023-05-09T12:29:48.512Z,98227.38
2023-05-09T12:32:18.187Z,98251.31
2023-05-09T12:34:44.606Z,98245.22
2023-05-09T12:37:20.187Z,98229.25
2023-05-09T12:40:08.333Z,98244.50
2023-05-09T12:42:35.689Z,98229.56
2023-05-09T12:45:02.702Z,98232.69
2023-05-09T12:47:30.145Z,98226.81
2023-05-09T12:50:03.941Z,98228.91
2023-05-09T12:52:34.644Z,98220.44
2023-05-09T12:55:06.419Z,98218.84
2023-05-09T12:57:32.788Z,98211.78
2023-05-09T13:00:00.266Z,98203.94
2023-05-09T13:02:27.339Z,98201.31
2023-05-09T13:05:09.116Z,98202.63
2023-05-09T13:07:45.484Z,98185.47
2023-05-09T13:10:15.339Z,98199.44
2023-05-09T13:12:42.870Z,98188.63
2023-05-09T13:15:10.000Z,98189.81
2023-05-09T13:17:36.436Z,98187.25
2023-05-09T13:20:03.114Z,98191.50
2023-05-09T13:22:29.466Z,98174.72
2023-05-09T13:24:55.812Z,98181.84
2023-05-09T13:27:22.158Z,98175.97
2023-05-09T13:29:48.567Z,98178.25
2023-05-09T13:32:14.899Z,98168.28
2023-05-09T13:34:41.974Z,98171.13
2023-05-09T13:37:08.340Z,98164.78
2023-05-09T13:39:34.768Z,98154.19
2023-05-09T13:42:01.098Z,98150.13
2023-05-09T13:44:27.600Z,98138.75
2023-05-09T13:46:53.950Z,98140.81
2023-05-09T13:49:20.286Z,98147.09
2023-05-09T13:51:46.601Z,98141.25
2023-05-09T13:54:12.945Z,98154.53
2023-05-09T13:56:39.528Z,98142.81
2023-05-09T13:59:06.758Z,98140.41
2023-05-09T14:01:33.185Z,98136.28
2023-05-09T14:03:59.619Z,98144.13
2023-05-09T14:06:26.061Z,98128.19
2023-05-09T14:08:52.415Z,98131.81
2023-05-09T14:11:18.817Z,98123.63
2023-05-09T14:13:45.181Z,98107.41
2023-05-09T14:16:11.542Z,98124.38
2023-05-09T14:18:37.901Z,98124.00
2023-05-09T14:21:04.607Z,98121.66
2023-05-09T14:23:30.924Z,98116.50
2023-05-09T14:25:57.251Z,98110.94
2023-05-09T14:28:23.646Z,98104.59
2023-05-09T14:30:50.044Z,98096.00
2023-05-09T14:33:16.406Z,98100.53
2023-05-09T14:35:42.737Z,98105.00
2023-05-09T14:38:09.055Z,98107.44
2023-05-09T14:40:35.412Z,98087.41
2023-05-09T14:43:01.969Z,98081.00
2023-05-09T14:45:29.255Z,98081.97
2023-05-09T14:47:55.582Z,98105.38
2023-05-09T14:50:21.980Z,98095.09
2023-05-09T14:52:49.328Z,98095.69
2023-05-09T14:55:15.772Z,98090.44
2023-05-09T14:57:42.100Z,98093.22
2023-05-09T15:00:20.366Z,98091.09
2023-05-09T15:02:48.166Z,98082.69
2023-05-09T15:05:14.523Z,98088.59
2023-05-09T15:07:40.840Z,98078.47
2023-05-09T15:10:07.558Z,98074.31
2023-05-09T15:12:33.904Z,98078.28
2023-05-09T15:15:17.245Z,98071.19
2023-05-09T15:17:44.227Z,98076.38
2023-05-09T15:20:14.166Z,98068.16
2023-05-09T15:22:41.660Z,98075.81
2023-05-09T15:25:08.480Z,98072.19
2023-05-09T15:27:35.242Z,98064.38
2023-05-09T15:30:01.983Z,98070.97
2023-05-09T15:32:28.360Z,98064.81
2023-05-09T15:34:54.732Z,98064.53
2023-05-09T15:37:21.107Z,98055.97
2023-05-09T15:39:47.455Z,98045.06
2023-05-09T15:42:14.853Z,98049.41
2023-05-09T15:44:42.933Z,98056.50
2023-05-09T15:47:09.789Z,98040.44
2023-05-09T15:49:36.174Z,98044.03
2023-05-09T15:52:03.616Z,98043.13
2023-05-09T15:54:29.981Z,98042.00
2023-05-09T15:56:56.363Z,98030.50
2023-05-09T15:59:22.703Z,98032.09
2023-05-09T16:01:49.216Z,98034.44
2023-05-09T16:04:15.571Z,98030.56
2023-05-09T16:06:42.884Z,98016.78
2023-05-09T16:09:09.270Z,98030.72
2023-05-09T16:11:36.106Z,98024.88
2023-05-09T16:14:02.554Z,98029.75
2023-05-09T16:16:29.037Z,98017.97
2023-05-09T16:18:55.388Z,98024.22
2023-05-09T16:21:21.753Z,98019.25
2023-05-09T16:23:48.135Z,98013.59
2023-05-09T16:26:14.440Z,98013.94
2023-05-09T16:28:40.769Z,98017.38
2023-05-09T16:31:07.135Z,98010.22
2023-05-09T16:33:33.759Z,98012.75
2023-05-09T16:36:00.400Z,98000.44
2023-05-09T16:38:26.868Z,98006.53
2023-05-09T16:40:53.303Z,98003.75
2023-05-09T16:43:19.650Z,97996.00
2023-05-09T16:45:46.365Z,97983.66
2023-05-09T16:48:12.785Z,97995.72
2023-05-09T16:50:39.119Z,97996.13
2023-05-09T16:53:05.444Z,97986.06
2023-05-09T16:55:31.757Z,97970.88
2023-05-09T16:57:58.110Z,97970.56
2023-05-09T17:00:24.465Z,97959.78
2023-05-09T17:02:50.871Z,97979.53
2023-05-09T17:05:17.215Z,97966.06
2023-05-09T17:07:43.571Z,97961.22
2023-05-09T17:10:10.459Z,97953.28
2023-05-09T17:12:36.897Z,97945.63
2023-05-09T17:15:03.430Z,97935.59
2023-05-09T17:17:29.799Z,97934.31
2023-05-09T17:19:56.178Z,97919.09
2023-05-09T17:22:22.624Z,97927.69
2023-05-09T17:24:49.077Z,97925.50
2023-05-09T17:27:15.386Z,97920.25
2023-05-09T17:29:41.747Z,97923.63
2023-05-09T17:32:08.057Z,97923.50
2023-05-09T17:34:34.403Z,97924.44
2023-05-09T17:37:00.780Z,97929.03
2023-05-09T17:39:27.126Z,97926.13
2023-05-09T17:41:53.556Z,97930.97
2023-05-09T17:44:19.929Z,97919.56
2023-05-09T17:46:47.590Z,97922.84
2023-05-09T17:49:14.478Z,97917.50
2023-05-09T17:51:41.229Z,97912.66
2023-05-09T17:54:07.630Z,97905.69
2023-05-09T17:56:34.127Z,97909.13
2023-05-09T17:59:00.468Z,97899.22
2023-05-09T18:01:26.822Z,97907.94
2023-05-09T18:03:53.333Z,97902.66
2023-05-09T18:06:19.910Z,97892.25
2023-05-09T18:08:46.323Z,97898.81
2023-05-09T18:11:12.721Z,97899.41
2023-05-09T18:13:39.517Z,97896.44
2023-05-09T18:16:06.017Z,97890.34
2023-05-09T18:18:32.386Z,97897.22
2023-05-09T18:20:58.915Z,97888.34
2023-05-09T18:23:25.839Z,97877.88
2023-05-09T18:25:52.763Z,97906.84
2023-05-09T18:28:19.074Z,97897.75
2023-05-09T18:30:45.439Z,97902.19
2023-05-09T18:33:11.757Z,97876.78
2023-05-09T18:35:38.099Z,97883.34
2023-05-09T18:38:04.423Z,97870.28
2023-05-09T18:40:30.849Z,97884.00
2023-05-09T18:42:58.300Z,97878.16
2023-05-09T18:45:24.844Z,97883.78
2023-05-09T18:47:51.289Z,97868.97
2023-05-09T18:50:17.950Z,97877.41
2023-05-09T18:52:44.449Z,97882.59
2023-05-09T18:55:11.222Z,97888.56
2023-05-09T18:57:38.799Z,97882.78
2023-05-09T19:00:06.287Z,97877.78
2023-05-09T19:02:32.632Z,97870.19
2023-05-09T19:04:58.995Z,97870.19
2023-05-09T19:07:25.345Z,97876.28
2023-05-09T19:09:51.762Z,97862.81
2023-05-09T19:12:19.317Z,97871.28
2023-05-09T19:14:45.648Z,97876.28
2023-05-09T19:17:12.145Z,97867.31
2023-05-09T19:19:38.457Z,97866.78
2023-05-09T19:22:04.790Z,97865.41
2023-05-09T19:24:32.338Z,97860.81
2023-05-09T19:26:58.692Z,97861.66
2023-05-09T19:29:25.002Z,97852.47
2023-05-09T19:31:51.344Z,97857.81
2023-05-09T19:34:17.670Z,97849.50
2023-05-09T19:36:44.029Z,97858.66
2023-05-09T19:39:10.351Z,97856.31
2023-05-09T19:41:37.816Z,97843.69
2023-05-09T19:44:04.373Z,97847.00
2023-05-09T19:46:30.753Z,97834.97
2023-05-09T19:48:57.116Z,97838.72
2023-05-09T19:51:23.441Z,97835.78
2023-05-09T19:53:49.761Z,97823.25
2023-05-09T19:56:16.124Z,97837.28
2023-05-09T19:58:42.474Z,97814.56
2023-05-09T20:01:09.943Z,97835.09
2023-05-09T20:03:36.362Z,97830.53
2023-05-09T20:06:02.882Z,97825.22
2023-05-09T20:08:29.207Z,97823.97
2023-05-09T20:10:55.606Z,97823.97
2023-05-09T20:13:22.023Z,97819.84
2023-05-09T20:15:48.488Z,97816.88
2023-05-09T20:18:14.868Z,97818.88
2023-05-09T20:20:41.238Z,97811.22
2023-05-09T20:23:07.562Z,97818.44
2023-05-09T20:25:33.877Z,97811.97
2023-05-09T20:28:00.221Z,97822.25
2023-05-09T20:30:26.577Z,97806.28
2023-05-09T20:32:52.965Z,97805.25
2023-05-09T20:35:19.411Z,97811.22
2023-05-09T20:37:45.749Z,97812.13
2023-05-09T20:40:12.298Z,97799.53
2023-05-09T20:42:38.626Z,97787.81
2023-05-09T20:45:05.331Z,97792.31
2023-05-09T20:47:31.707Z,97788.63
2023-05-09T20:50:12.715Z,97788.91
2023-05-09T20:52:39.062Z,97798.78
2023-05-09T20:55:05.709Z,97789.44
2023-05-09T20:57:32.033Z,97781.69
2023-05-09T20:59:58.821Z,97772.94
2023-05-09T21:02:25.294Z,97766.63
2023-05-09T21:04:51.705Z,97777.50
2023-05-09T21:07:18.062Z,97767.09
2023-05-09T21:09:44.749Z,97783.47
2023-05-09T21:12:11.409Z,97770.13
2023-05-09T21:14:37.790Z,97771.72
2023-05-09T21:17:04.258Z,97758.94
2023-05-09T21:19:30.638Z,97760.28
2023-05-09T21:21:58.294Z,97752.03
2023-05-09T21:24:24.700Z,97743.78
2023-05-09T21:26:51.168Z,97749.88
2023-05-09T21:29:17.488Z,97741.44
2023-05-09T21:31:43.959Z,97734.63
2023-05-09T21:34:10.418Z,97731.56
2023-05-09T21:36:37.584Z,97745.59
2023-05-09T21:39:04.198Z,97739.91
2023-05-09T21:41:30.546Z,97739.88
2023-05-09T21:43:56.900Z,97744.66
2023-05-09T21:46:23.390Z,97727.09
2023-05-09T21:48:49.802Z,97733.66
2023-05-09T21:51:16.140Z,97725.69
2023-05-09T21:53:42.485Z,97729.50
2023-05-09T21:56:08.814Z,97737.94
2023-05-09T21:58:35.143Z,97720.41
2023-05-09T22:01:01.470Z,97720.47
2023-05-09T22:03:27.865Z,97718.28
2023-05-09T22:05:54.372Z,97722.75
2023-05-09T22:08:20.714Z,97734.25
2023-05-09T22:10:47.051Z,97720.91
2023-05-09T22:13:13.389Z,97716.59
2023-05-09T22:15:41.886Z,97723.63
2023-05-09T22:18:08.342Z,97707.59
2023-05-09T22:20:34.816Z,97710.28
2023-05-09T22:23:01.181Z,97712.94
2023-05-09T22:25:27.561Z,97695.53
2023-05-09T22:27:54.989Z,97704.28
2023-05-09T22:30:21.399Z,97706.13
2023-05-09T22:32:47.747Z,97690.28
2023-05-09T22:35:14.088Z,97715.78
2023-05-09T22:37:40.426Z,97704.69
2023-05-09T22:40:07.366Z,97702.47
2023-05-09T22:42:33.753Z,97700.34
2023-05-09T22:45:00.440Z,97693.50
2023-05-09T22:47:26.931Z,97703.34
2023-05-09T22:49:53.483Z,97702.66
2023-05-09T22:52:19.859Z,97695.72
2023-05-09T22:54:46.228Z,97688.56
2023-05-09T22:57:12.578Z,97699.22
2023-05-09T22:59:38.931Z,97693.56
2023-05-09T23:02:05.295Z,97685.13
2023-05-09T23:04:31.653Z,97676.03
2023-05-09T23:06:57.978Z,97678.72
2023-05-09T23:09:24.347Z,97688.19
2023-05-09T23:11:50.681Z,97676.44
2023-05-09T23:14:17.094Z,97665.06
2023-05-09T23:16:44.082Z,97681.72
2023-05-09T23:19:10.453Z,97663.09
2023-05-09T23:21:36.785Z,97662.75
2023-05-09T23:24:03.151Z,97672.59
2023-05-09T23:26:29.525Z,97677.16
2023-05-09T23:28:55.859Z,97681.06
2023-05-09T23:31:22.260Z,97688.28
2023-05-09T23:33:48.650Z,97687.56
2023-05-09T23:36:15.010Z,97689.81
2023-05-09T23:38:41.352Z,97680.03
2023-05-09T23:41:07.682Z,97696.38
2023-05-09T23:43:33.998Z,97693.38
2023-05-09T23:46:00.341Z,97691.44
2023-05-09T23:48:26.667Z,97691.44
2023-05-09T23:50:53.038Z,97685.38
2023-05-09T23:53:19.381Z,97685.75
2023-05-09T23:55:45.706Z,97695.31
2023-05-09T23:58:12.365Z,97657.31
